createdAt,value
2023-01-29T00:02:27.366Z,98811.88
2023-01-29T00:04:59.016Z,98804.88
2023-01-29T00:07:28.594Z,98811.00
2023-01-29T00:09:56.663Z,98808.44
2023-01-29T00:12:24.737Z,98811.84
2023-01-29T00:14:52.883Z,98796.13
2023-01-29T00:17:20.929Z,98790.97
2023-01-29T00:19:49.077Z,98785.66
2023-01-29T00:22:17.203Z,98781.25
2023-01-29T00:24:46.975Z,98779.59
2023-01-29T00:27:14.972Z,98784.81
2023-01-29T00:29:43.659Z,98781.38
2023-01-29T00:32:11.764Z,98778.75
2023-01-29T00:34:39.907Z,98773.69
2023-01-29T00:37:09.028Z,98772.72
2023-01-29T00:39:47.821Z,98778.03
2023-01-29T00:42:35.428Z,98775.53
2023-01-29T00:45:03.507Z,98775.34
2023-01-29T00:47:34.543Z,98768.28
2023-01-29T00:50:02.639Z,98768.38
2023-01-29T00:52:30.873Z,98758.56
2023-01-29T00:54:59.580Z,98767.28
2023-01-29T00:57:29.861Z,98765.56
2023-01-29T00:59:58.024Z,98771.69
2023-01-29T01:02:44.324Z,98769.06
2023-01-29T01:05:14.280Z,98764.72
2023-01-29T01:07:42.381Z,98762.09
2023-01-29T01:10:22.259Z,98769.22
2023-01-29T01:12:54.689Z,98771.91
2023-01-29T01:15:23.071Z,98769.31
2023-01-29T01:17:53.910Z,98766.88
2023-01-29T01:20:21.987Z,98766.78
2023-01-29T01:22:50.356Z,98763.25
2023-01-29T01:25:18.907Z,98759.00
2023-01-29T01:27:47.010Z,98756.25
2023-01-29T01:30:17.882Z,98768.34
2023-01-29T01:32:46.195Z,98773.50
2023-01-29T01:35:14.914Z,98780.56
2023-01-29T01:37:43.427Z,98785.03
2023-01-29T01:40:18.379Z,98780.63
2023-01-29T01:42:48.577Z,98766.66
2023-01-29T01:45:23.224Z,98765.78
2023-01-29T01:47:53.300Z,98757.06
2023-01-29T01:50:23.131Z,98751.81
2023-01-29T01:52:54.345Z,98752.63
2023-01-29T01:55:24.279Z,98739.41
2023-01-29T01:57:54.284Z,98725.69
2023-01-29T02:00:24.284Z,98716.97
2023-01-29T02:03:09.349Z,98712.59
2023-01-29T02:05:55.179Z,98723.22
2023-01-29T02:08:47.623Z,98730.03
2023-01-29T02:11:17.489Z,98742.03
2023-01-29T02:13:45.740Z,98740.38
2023-01-29T02:16:15.160Z,98735.25
2023-01-29T02:18:43.199Z,98734.44
2023-01-29T02:21:29.320Z,98751.03
2023-01-29T02:24:12.859Z,98761.56
2023-01-29T02:26:46.934Z,98749.44
2023-01-29T02:29:25.168Z,98752.97
2023-01-29T02:31:59.675Z,98763.19
2023-01-29T02:34:47.669Z,98767.75
2023-01-29T02:37:15.728Z,98760.78
2023-01-29T02:39:46.504Z,98767.53
2023-01-29T02:42:16.812Z,98760.56
2023-01-29T02:44:49.981Z,98766.88
2023-01-29T02:47:19.125Z,98768.53
2023-01-29T02:49:51.271Z,98773.22
2023-01-29T02:52:20.390Z,98761.84
2023-01-29T02:54:51.659Z,98764.25
2023-01-29T02:57:23.713Z,98770.72
2023-01-29T02:59:56.826Z,98777.66
2023-01-29T03:02:27.231Z,98782.88
2023-01-29T03:04:58.275Z,98779.56
2023-01-29T03:07:42.695Z,98779.31
2023-01-29T03:10:13.674Z,98775.81
2023-01-29T03:12:41.835Z,98773.16
2023-01-29T03:15:15.113Z,98774.91
2023-01-29T03:17:45.541Z,98773.22
2023-01-29T03:20:16.762Z,98768.78
2023-01-29T03:22:46.523Z,98760.94
2023-01-29T03:25:32.498Z,98765.44
2023-01-29T03:28:18.518Z,98761.81
2023-01-29T03:31:06.844Z,98763.47
2023-01-29T03:33:40.786Z,98762.66
2023-01-29T03:36:11.545Z,98772.25
2023-01-29T03:38:40.108Z,98769.81
2023-01-29T03:41:10.131Z,98766.44
2023-01-29T03:43:40.148Z,98760.97
2023-01-29T03:46:11.764Z,98768.03
2023-01-29T03:48:41.420Z,98771.41
2023-01-29T03:51:16.220Z,98769.56
2023-01-29T03:53:45.160Z,98787.06
2023-01-29T03:56:20.488Z,98778.13
2023-01-29T03:58:49.612Z,98774.78
2023-01-29T04:01:22.501Z,98774.59
2023-01-29T04:03:52.945Z,98767.72
2023-01-29T04:06:22.437Z,98771.13
2023-01-29T04:08:55.923Z,98761.22
2023-01-29T04:11:23.980Z,98748.28
2023-01-29T04:13:52.011Z,98745.66
2023-01-29T04:16:24.056Z,98738.72
2023-01-29T04:18:52.697Z,98736.47
2023-01-29T04:21:21.072Z,98732.03
2023-01-29T04:23:49.197Z,98735.56
2023-01-29T04:26:26.301Z,98730.16
2023-01-29T04:29:01.109Z,98729.22
2023-01-29T04:31:33.400Z,98734.56
2023-01-29T04:34:06.690Z,98726.09
2023-01-29T04:36:37.991Z,98724.38
2023-01-29T04:39:12.053Z,98729.59
2023-01-29T04:41:43.427Z,98731.06
2023-01-29T04:44:14.565Z,98736.09
2023-01-29T04:46:48.411Z,98729.34
2023-01-29T04:49:21.042Z,98728.50
2023-01-29T04:51:52.195Z,98732.91
2023-01-29T04:54:24.250Z,98733.72
2023-01-29T04:56:54.482Z,98724.22
2023-01-29T04:59:23.833Z,98717.22
2023-01-29T05:01:53.611Z,98712.75
2023-01-29T05:04:21.655Z,98710.09
2023-01-29T05:06:49.726Z,98712.91
2023-01-29T05:09:18.347Z,98706.72
2023-01-29T05:11:46.568Z,98717.25
2023-01-29T05:14:15.633Z,98717.22
2023-01-29T05:16:44.886Z,98701.53
2023-01-29T05:19:15.747Z,98705.91
2023-01-29T05:21:44.704Z,98691.84
2023-01-29T05:24:14.090Z,98684.91
2023-01-29T05:27:00.278Z,98677.13
2023-01-29T05:29:28.524Z,98680.72
2023-01-29T05:31:56.723Z,98678.00
2023-01-29T05:34:26.134Z,98676.31
2023-01-29T05:36:54.190Z,98669.31
2023-01-29T05:39:22.297Z,98672.22
2023-01-29T05:41:50.340Z,98668.72
2023-01-29T05:44:18.370Z,98676.50
2023-01-29T05:46:46.768Z,98673.03
2023-01-29T05:49:14.830Z,98668.59
2023-01-29T05:51:44.227Z,98682.66
2023-01-29T05:54:13.245Z,98686.94
2023-01-29T05:56:41.439Z,98681.94
2023-01-29T05:59:09.881Z,98689.78
2023-01-29T06:01:38.347Z,98690.78
2023-01-29T06:04:06.487Z,98690.72
2023-01-29T06:06:34.668Z,98702.19
2023-01-29T06:09:04.676Z,98711.00
2023-01-29T06:11:32.828Z,98716.13
2023-01-29T06:14:00.812Z,98718.66
2023-01-29T06:16:28.856Z,98720.53
2023-01-29T06:18:58.039Z,98717.00
2023-01-29T06:21:26.477Z,98733.63
2023-01-29T06:23:54.692Z,98727.41
2023-01-29T06:26:24.195Z,98735.19
2023-01-29T06:28:52.278Z,98730.88
2023-01-29T06:31:36.666Z,98742.19
2023-01-29T06:34:05.838Z,98746.38
2023-01-29T06:36:34.407Z,98739.25
2023-01-29T06:39:02.454Z,98743.88
2023-01-29T06:41:32.055Z,98750.06
2023-01-29T06:44:00.450Z,98747.25
2023-01-29T06:46:28.769Z,98757.69
2023-01-29T06:48:59.212Z,98751.53
2023-01-29T06:51:31.717Z,98752.22
2023-01-29T06:53:59.821Z,98743.53
2023-01-29T06:56:27.919Z,98743.34
2023-01-29T06:58:57.346Z,98728.41
2023-01-29T07:01:35.816Z,98733.56
2023-01-29T07:04:04.578Z,98735.16
2023-01-29T07:06:33.225Z,98743.84
2023-01-29T07:09:01.294Z,98750.88
2023-01-29T07:11:29.305Z,98753.34
2023-01-29T07:13:59.171Z,98750.63
2023-01-29T07:16:27.456Z,98758.78
2023-01-29T07:18:55.568Z,98747.38
2023-01-29T07:21:23.616Z,98750.53
2023-01-29T07:23:52.254Z,98747.13
2023-01-29T07:26:20.401Z,98734.81
2023-01-29T07:28:48.484Z,98745.47
2023-01-29T07:31:18.144Z,98740.09
2023-01-29T07:33:46.653Z,98728.28
2023-01-29T07:36:15.164Z,98721.72
2023-01-29T07:38:43.285Z,98733.97
2023-01-29T07:41:12.251Z,98736.31
2023-01-29T07:43:40.296Z,98744.81
2023-01-29T07:46:08.369Z,98728.19
2023-01-29T07:48:38.100Z,98726.19
2023-01-29T07:51:06.873Z,98720.88
2023-01-29T07:53:36.154Z,98717.59
2023-01-29T07:56:04.694Z,98717.84
2023-01-29T07:58:35.579Z,98715.69
2023-01-29T08:01:06.951Z,98723.13
2023-01-29T08:03:35.054Z,98716.16
2023-01-29T08:06:04.747Z,98716.97
2023-01-29T08:08:33.247Z,98721.44
2023-01-29T08:11:02.508Z,98716.28
2023-01-29T08:13:30.561Z,98721.34
2023-01-29T08:16:01.353Z,98718.91
2023-01-29T08:18:29.379Z,98724.34
2023-01-29T08:21:00.894Z,98720.69
2023-01-29T08:23:30.365Z,98726.03
2023-01-29T08:26:00.731Z,98732.91
2023-01-29T08:28:28.845Z,98726.94
2023-01-29T08:30:57.335Z,98719.13
2023-01-29T08:33:38.806Z,98725.31
2023-01-29T08:36:08.409Z,98721.75
2023-01-29T08:38:37.934Z,98709.25
2023-01-29T08:41:06.195Z,98719.88
2023-01-29T08:43:35.395Z,98719.75
2023-01-29T08:46:04.927Z,98711.81
2023-01-29T08:48:33.386Z,98718.78
2023-01-29T08:51:02.364Z,98722.09
2023-01-29T08:53:30.373Z,98709.78
2023-01-29T08:55:59.816Z,98715.66
2023-01-29T08:58:29.628Z,98717.41
2023-01-29T09:00:57.744Z,98721.09
2023-01-29T09:03:25.806Z,98719.38
2023-01-29T09:05:54.135Z,98710.44
2023-01-29T09:08:24.281Z,98703.31
2023-01-29T09:10:52.351Z,98705.22
2023-01-29T09:13:22.138Z,98697.75
2023-01-29T09:15:50.298Z,98694.03
2023-01-29T09:18:18.375Z,98689.47
2023-01-29T09:20:46.382Z,98688.72
2023-01-29T09:23:15.071Z,98686.09
2023-01-29T09:25:44.140Z,98690.53
2023-01-29T09:28:12.563Z,98679.03
2023-01-29T09:30:42.025Z,98691.06
2023-01-29T09:33:10.143Z,98684.28
2023-01-29T09:35:38.215Z,98687.66
2023-01-29T09:38:09.628Z,98685.97
2023-01-29T09:40:48.660Z,98678.00
2023-01-29T09:43:19.799Z,98669.16
2023-01-29T09:45:55.330Z,98668.28
2023-01-29T09:48:24.644Z,98666.28
2023-01-29T09:50:53.112Z,98662.66
2023-01-29T09:53:23.054Z,98655.72
2023-01-29T09:55:52.691Z,98654.56
2023-01-29T09:58:22.690Z,98648.84
2023-01-29T10:00:55.835Z,98655.97
2023-01-29T10:03:36.328Z,98661.00
2023-01-29T10:06:11.094Z,98656.72
2023-01-29T10:08:51.669Z,98663.25
2023-01-29T10:11:25.472Z,98653.75
2023-01-29T10:13:58.012Z,98654.09
2023-01-29T10:16:42.237Z,98657.00
2023-01-29T10:19:17.371Z,98663.84
2023-01-29T10:21:58.443Z,98659.09
2023-01-29T10:24:30.885Z,98654.81
2023-01-29T10:26:58.874Z,98660.66
2023-01-29T10:29:27.058Z,98658.00
2023-01-29T10:31:58.053Z,98653.94
2023-01-29T10:34:30.498Z,98650.41
2023-01-29T10:36:59.866Z,98652.28
2023-01-29T10:39:28.056Z,98651.22
2023-01-29T10:42:05.760Z,98651.06
2023-01-29T10:44:42.141Z,98648.75
2023-01-29T10:47:32.895Z,98637.34
2023-01-29T10:50:10.053Z,98636.06
2023-01-29T10:52:45.191Z,98624.94
2023-01-29T10:55:21.415Z,98619.38
2023-01-29T10:58:03.128Z,98613.97
2023-01-29T11:00:32.801Z,98600.72
2023-01-29T11:03:05.252Z,98598.09
2023-01-29T11:05:36.483Z,98603.31
2023-01-29T11:08:06.481Z,98589.25
2023-01-29T11:10:37.135Z,98584.69
2023-01-29T11:13:05.404Z,98575.03
2023-01-29T11:15:34.905Z,98573.47
2023-01-29T11:18:05.540Z,98573.59
2023-01-29T11:20:34.003Z,98573.69
2023-01-29T11:23:02.018Z,98570.25
2023-01-29T11:25:32.728Z,98574.38
2023-01-29T11:28:01.973Z,98572.78
2023-01-29T11:30:33.224Z,98582.50
2023-01-29T11:33:10.502Z,98572.47
2023-01-29T11:35:38.849Z,98574.78
2023-01-29T11:38:08.854Z,98572.81
2023-01-29T11:40:40.819Z,98571.78
2023-01-29T11:43:24.051Z,98565.72
2023-01-29T11:45:53.351Z,98567.91
2023-01-29T11:48:23.275Z,98552.59
2023-01-29T11:50:54.869Z,98554.56
2023-01-29T11:53:29.670Z,98547.31
2023-01-29T11:55:59.325Z,98542.69
2023-01-29T11:58:28.855Z,98542.03
2023-01-29T12:00:56.899Z,98531.66
2023-01-29T12:03:32.097Z,98525.88
2023-01-29T12:06:01.353Z,98521.44
2023-01-29T12:08:30.831Z,98517.44
2023-01-29T12:11:09.129Z,98507.13
2023-01-29T12:13:37.313Z,98502.91
2023-01-29T12:16:20.532Z,98507.59
2023-01-29T12:18:52.195Z,98496.03
2023-01-29T12:21:22.064Z,98490.63
2023-01-29T12:23:53.637Z,98486.56
2023-01-29T12:26:24.341Z,98471.44
2023-01-29T12:28:55.988Z,98463.63
2023-01-29T12:31:30.959Z,98450.94
2023-01-29T12:34:03.403Z,98439.16
2023-01-29T12:36:33.938Z,98436.56
2023-01-29T12:39:02.086Z,98432.72
2023-01-29T12:41:37.672Z,98423.25
2023-01-29T12:44:12.525Z,98408.59
2023-01-29T12:46:43.135Z,98401.53
2023-01-29T12:49:16.796Z,98399.94
2023-01-29T12:51:56.834Z,98387.59
2023-01-29T12:54:29.642Z,98389.16
2023-01-29T12:56:59.813Z,98385.88
2023-01-29T12:59:30.135Z,98384.94
2023-01-29T13:01:58.519Z,98382.53
2023-01-29T13:04:32.619Z,98379.44
2023-01-29T13:07:04.527Z,98362.66
2023-01-29T13:09:32.705Z,98364.06
2023-01-29T13:12:01.891Z,98356.56
2023-01-29T13:14:34.539Z,98350.59
2023-01-29T13:17:07.502Z,98352.16
2023-01-29T13:19:38.596Z,98350.41
2023-01-29T13:22:08.591Z,98351.97
2023-01-29T13:24:38.236Z,98348.69
2023-01-29T13:27:06.468Z,98340.75
2023-01-29T13:29:35.617Z,98340.97
2023-01-29T13:32:04.795Z,98336.75
2023-01-29T13:34:33.695Z,98336.56
2023-01-29T13:37:05.197Z,98339.13
2023-01-29T13:39:34.216Z,98342.44
2023-01-29T13:42:02.692Z,98341.56
2023-01-29T13:44:38.152Z,98338.09
2023-01-29T13:47:07.275Z,98339.47
2023-01-29T13:49:37.461Z,98331.81
2023-01-29T13:52:30.026Z,98334.84
2023-01-29T13:55:00.415Z,98329.09
2023-01-29T13:57:54.728Z,98325.19
2023-01-29T14:00:57.442Z,98330.81
2023-01-29T14:04:04.863Z,98329.31
2023-01-29T14:06:50.224Z,98319.50
2023-01-29T14:10:03.834Z,98321.41
2023-01-29T14:12:52.736Z,98324.94
2023-01-29T14:15:28.366Z,98331.81
2023-01-29T14:18:05.998Z,98322.50
2023-01-29T14:20:45.553Z,98324.25
2023-01-29T14:23:32.304Z,98321.66
2023-01-29T14:26:01.912Z,98321.44
2023-01-29T14:28:32.156Z,98321.72
2023-01-29T14:31:28.806Z,98332.00
2023-01-29T14:34:08.875Z,98324.72
2023-01-29T14:36:45.882Z,98327.00
2023-01-29T14:39:27.169Z,98331.25
2023-01-29T14:41:59.191Z,98327.25
2023-01-29T14:45:19.130Z,98331.78
2023-01-29T14:48:31.940Z,98325.63
2023-01-29T14:51:30.398Z,98325.09
2023-01-29T14:54:00.379Z,98326.44
2023-01-29T14:56:30.819Z,98327.00
2023-01-29T14:59:03.349Z,98331.63
2023-01-29T15:01:35.163Z,98323.03
2023-01-29T15:04:06.233Z,98324.56
2023-01-29T15:06:37.006Z,98316.91
2023-01-29T15:09:06.976Z,98324.63
2023-01-29T15:11:38.301Z,98323.38
2023-01-29T15:14:24.011Z,98320.59
2023-01-29T15:17:08.801Z,98313.88
2023-01-29T15:19:40.366Z,98322.59
2023-01-29T15:22:10.354Z,98330.38
2023-01-29T15:24:38.447Z,98318.56
2023-01-29T15:27:07.832Z,98321.59
2023-01-29T15:29:36.186Z,98321.88
2023-01-29T15:32:04.414Z,98317.31
2023-01-29T15:34:32.780Z,98313.97
2023-01-29T15:37:03.172Z,98311.19
2023-01-29T15:39:31.867Z,98304.22
2023-01-29T15:42:06.439Z,98308.22
2023-01-29T15:44:35.275Z,98301.63
2023-01-29T15:47:03.392Z,98296.94
2023-01-29T15:49:32.251Z,98302.94
2023-01-29T15:52:04.571Z,98294.97
2023-01-29T15:54:33.253Z,98297.56
2023-01-29T15:57:03.682Z,98297.38
2023-01-29T15:59:34.659Z,98298.72
2023-01-29T16:02:33.902Z,98295.16
2023-01-29T16:05:02.392Z,98283.50
2023-01-29T16:07:34.407Z,98290.31
2023-01-29T16:10:02.882Z,98288.09
2023-01-29T16:12:39.998Z,98288.00
2023-01-29T16:15:16.028Z,98289.31
2023-01-29T16:17:47.209Z,98287.78
2023-01-29T16:20:29.172Z,98294.38
2023-01-29T16:22:58.620Z,98298.56
2023-01-29T16:25:26.723Z,98296.78
2023-01-29T16:27:56.066Z,98291.00
2023-01-29T16:30:26.570Z,98290.31
2023-01-29T16:32:55.018Z,98290.47
2023-01-29T16:35:22.996Z,98278.78
2023-01-29T16:37:51.387Z,98275.41
2023-01-29T16:40:27.285Z,98277.66
2023-01-29T16:43:00.004Z,98265.03
2023-01-29T16:45:28.714Z,98261.44
2023-01-29T16:48:03.342Z,98263.69
2023-01-29T16:50:46.369Z,98258.81
2023-01-29T16:53:24.619Z,98261.06
2023-01-29T16:55:54.075Z,98263.88
2023-01-29T16:58:22.763Z,98270.66
2023-01-29T17:00:52.390Z,98268.91
2023-01-29T17:03:20.513Z,98265.13
2023-01-29T17:05:48.870Z,98270.66
2023-01-29T17:08:27.728Z,98279.31
2023-01-29T17:10:58.471Z,98266.47
2023-01-29T17:13:30.376Z,98253.31
2023-01-29T17:16:02.823Z,98249.97
2023-01-29T17:18:31.085Z,98251.38
2023-01-29T17:20:59.071Z,98249.78
2023-01-29T17:23:27.073Z,98238.41
2023-01-29T17:25:56.448Z,98235.91
2023-01-29T17:28:24.496Z,98238.22
2023-01-29T17:31:05.173Z,98230.44
2023-01-29T17:33:33.819Z,98220.75
2023-01-29T17:36:02.403Z,98224.69
2023-01-29T17:38:30.446Z,98216.28
2023-01-29T17:41:01.362Z,98218.16
2023-01-29T17:43:29.864Z,98219.72
2023-01-29T17:45:57.963Z,98212.28
2023-01-29T17:48:26.639Z,98211.16
2023-01-29T17:50:55.659Z,98213.88
2023-01-29T17:53:26.540Z,98213.59
2023-01-29T17:55:58.482Z,98204.91
2023-01-29T17:58:28.329Z,98208.47
2023-01-29T18:00:56.519Z,98217.66
2023-01-29T18:03:26.589Z,98213.66
2023-01-29T18:05:54.884Z,98211.88
2023-01-29T18:08:27.176Z,98207.31
2023-01-29T18:10:55.306Z,98204.31
2023-01-29T18:13:23.844Z,98202.56
2023-01-29T18:15:53.221Z,98203.66
2023-01-29T18:18:22.222Z,98210.09
2023-01-29T18:20:50.299Z,98211.13
2023-01-29T18:23:18.380Z,98203.84
2023-01-29T18:25:46.688Z,98201.97
2023-01-29T18:28:16.539Z,98197.00
2023-01-29T18:30:45.788Z,98200.34
2023-01-29T18:33:15.306Z,98196.91
2023-01-29T18:35:44.709Z,98200.03
2023-01-29T18:38:12.753Z,98194.38
2023-01-29T18:40:40.864Z,98184.22
2023-01-29T18:43:08.922Z,98190.16
2023-01-29T18:45:37.331Z,98185.78
2023-01-29T18:48:06.410Z,98182.34
2023-01-29T18:50:36.412Z,98174.78
2023-01-29T18:53:04.927Z,98166.84
2023-01-29T18:55:33.999Z,98169.53
2023-01-29T18:58:28.015Z,98166.00
2023-01-29T19:00:50.202Z,98160.09
2023-01-29T19:03:18.313Z,98152.53
2023-01-29T19:05:47.985Z,98147.25
2023-01-29T19:08:16.115Z,98143.09
2023-01-29T19:10:44.599Z,98133.84
2023-01-29T19:13:12.590Z,98135.88
2023-01-29T19:15:43.215Z,98145.97
2023-01-29T19:18:14.690Z,98152.97
2023-01-29T19:20:42.980Z,98162.50
2023-01-29T19:23:13.254Z,98156.47
2023-01-29T19:25:41.389Z,98147.81
2023-01-29T19:28:09.453Z,98153.91
2023-01-29T19:30:37.504Z,98152.34
2023-01-29T19:33:05.650Z,98150.59
2023-01-29T19:35:34.978Z,98154.34
2023-01-29T19:38:03.047Z,98149.34
2023-01-29T19:40:32.588Z,98151.78
2023-01-29T19:43:00.572Z,98145.50
2023-01-29T19:45:32.803Z,98154.34
2023-01-29T19:48:21.831Z,98145.97
2023-01-29T19:50:53.808Z,98150.00
2023-01-29T19:53:21.831Z,98139.81
2023-01-29T19:55:59.911Z,98141.28
2023-01-29T19:58:28.122Z,98125.69
2023-01-29T20:00:58.121Z,98113.50
2023-01-29T20:03:26.388Z,98120.25
2023-01-29T20:05:54.430Z,98122.75
2023-01-29T20:08:23.875Z,98126.00
2023-01-29T20:10:53.430Z,98110.38
2023-01-29T20:13:21.494Z,98113.59
2023-01-29T20:15:50.720Z,98117.16
2023-01-29T20:18:18.911Z,98102.63
2023-01-29T20:20:47.661Z,98103.28
2023-01-29T20:23:22.263Z,98098.06
2023-01-29T20:26:00.186Z,98095.88
2023-01-29T20:28:28.353Z,98090.31
2023-01-29T20:30:58.213Z,98078.25
2023-01-29T20:33:26.782Z,98081.22
2023-01-29T20:35:55.370Z,98071.00
2023-01-29T20:38:23.691Z,98065.88
2023-01-29T20:40:51.811Z,98062.75
2023-01-29T20:43:21.724Z,98055.19
2023-01-29T20:45:49.794Z,98063.88
2023-01-29T20:48:17.996Z,98053.50
2023-01-29T20:50:46.003Z,98063.19
2023-01-29T20:53:14.072Z,98048.28
2023-01-29T20:55:42.148Z,98041.69
2023-01-29T20:58:10.340Z,98047.38
2023-01-29T21:00:40.149Z,98051.84
2023-01-29T21:03:08.245Z,98044.66
2023-01-29T21:05:36.734Z,98056.00
2023-01-29T21:08:04.925Z,98054.44
2023-01-29T21:10:32.969Z,98042.31
2023-01-29T21:13:01.485Z,98048.16
2023-01-29T21:15:29.606Z,98044.06
2023-01-29T21:18:02.635Z,98018.50
2023-01-29T21:20:30.712Z,98022.56
2023-01-29T21:22:58.717Z,98027.88
2023-01-29T21:25:26.741Z,98025.25
2023-01-29T21:27:54.687Z,98025.97
2023-01-29T21:30:23.253Z,98033.09
2023-01-29T21:32:51.293Z,98022.66
2023-01-29T21:35:20.737Z,98028.88
2023-01-29T21:37:49.440Z,98030.28
2023-01-29T21:40:18.822Z,98045.25
2023-01-29T21:43:04.613Z,98042.78
2023-01-29T21:45:35.411Z,98006.06
2023-01-29T21:48:04.441Z,97997.34
2023-01-29T21:50:34.798Z,98002.50
2023-01-29T21:53:05.589Z,98020.34
2023-01-29T21:55:34.803Z,98034.88
2023-01-29T21:58:04.465Z,98026.84
2023-01-29T22:00:32.968Z,98032.06
2023-01-29T22:03:01.460Z,98040.28
2023-01-29T22:05:30.252Z,98028.81
2023-01-29T22:08:00.426Z,98039.72
2023-01-29T22:10:29.005Z,98040.47
2023-01-29T22:12:57.882Z,98044.47
2023-01-29T22:15:26.144Z,98042.34
2023-01-29T22:17:54.295Z,98040.91
2023-01-29T22:20:29.697Z,98044.41
2023-01-29T22:23:00.738Z,98038.22
2023-01-29T22:25:28.919Z,98020.84
2023-01-29T22:27:56.866Z,98020.63
2023-01-29T22:30:25.494Z,98022.41
2023-01-29T22:32:55.456Z,98021.56
2023-01-29T22:35:23.820Z,98006.91
2023-01-29T22:37:52.573Z,97995.09
2023-01-29T22:40:25.464Z,97996.31
2023-01-29T22:42:55.520Z,98033.59
2023-01-29T22:45:24.552Z,98023.66
2023-01-29T22:47:52.554Z,98022.31
2023-01-29T22:50:20.849Z,98024.31
2023-01-29T22:52:54.188Z,98009.06
2023-01-29T22:55:24.102Z,97998.59
2023-01-29T22:57:53.589Z,98001.38
2023-01-29T23:00:22.320Z,97998.63
2023-01-29T23:02:51.218Z,97992.47
2023-01-29T23:05:19.557Z,97986.41
2023-01-29T23:07:47.619Z,97981.19
2023-01-29T23:10:16.019Z,97975.91
2023-01-29T23:12:46.041Z,97958.75
2023-01-29T23:15:14.033Z,97962.84
2023-01-29T23:17:42.048Z,97941.50
2023-01-29T23:20:11.961Z,97926.91
2023-01-29T23:22:39.950Z,97919.75
2023-01-29T23:25:08.618Z,97907.34
2023-01-29T23:27:35.956Z,97890.09
2023-01-29T23:30:06.772Z,97896.34
2023-01-29T23:32:35.038Z,97905.56
2023-01-29T23:35:03.170Z,97889.16
2023-01-29T23:37:31.617Z,97874.03
2023-01-29T23:39:59.656Z,97872.06
2023-01-29T23:42:27.697Z,97886.00
2023-01-29T23:44:56.043Z,97884.97
2023-01-29T23:47:25.602Z,97904.47
2023-01-29T23:49:53.983Z,97899.81
2023-01-29T23:52:22.935Z,97914.06
2023-01-29T23:54:50.908Z,97902.97
2023-01-29T23:57:19.079Z,97899.88
2023-01-29T23:59:47.238Z,97907.56
